Time;durP1;ratioP1;P1;durP2;ratioP2;P2;SDS_P1;SDS_P2;PMS_P1;PMS_P2;Temp;Humidity;BMP_temperature;BMP_pressure;BME280_temperature;BME280_humidity;BME280_pressure;Samples;Min_cycle;Max_cycle;Signal;HPM_P1;HPM_P2
2021/12/21 00:00:50;;;;;;;11.45;7.97;;;3.70;64.40;;;-142.21;100.00;112049.66;5054709;28;20260;-79
2021/12/21 00:03:18;;;;;;;15.82;7.70;;;3.70;64.60;;;-142.21;100.00;112049.66;5053642;28;20230;-79
2021/12/21 00:05:46;;;;;;;11.40;7.55;;;3.70;64.70;;;-142.21;100.00;112049.66;5054551;28;20658;-79
2021/12/21 00:08:14;;;;;;;13.80;8.07;;;3.70;64.90;;;-142.21;100.00;112049.66;5053832;28;20240;-79
2021/12/21 00:10:47;;;;;;;12.43;8.00;;;3.70;64.60;;;-142.21;100.00;112049.66;5054453;28;20248;-81
2021/12/21 00:13:36;;;;;;;13.60;7.90;;;3.70;64.90;;;-142.21;100.00;112049.66;5053930;28;20250;-79
2021/12/21 00:16:12;;;;;;;11.63;7.38;;;3.70;64.90;;;-142.21;100.00;112049.66;5054528;28;20194;-78
2021/12/21 00:18:46;;;;;;;13.00;7.68;;;3.70;65.50;;;-142.21;100.00;112049.66;5054147;28;20185;-78
2021/12/21 00:21:24;;;;;;;13.88;8.48;;;3.70;65.00;;;-142.21;100.00;112049.66;5053625;28;20216;-77
2021/12/21 00:23:57;;;;;;;14.48;8.63;;;3.80;65.10;;;-142.21;100.00;112049.66;5054430;28;20217;-80
2021/12/21 00:26:26;;;;;;;12.57;8.68;;;3.80;65.00;;;-142.21;100.00;112049.66;5053731;28;20233;-79
2021/12/21 00:28:56;;;;;;;16.48;8.20;;;3.80;65.20;;;-142.21;100.00;112049.66;5053883;28;20241;-80
2021/12/21 00:31:24;;;;;;;14.30;8.15;;;3.80;65.30;;;-142.21;100.00;112049.66;5051906;28;20217;-80
2021/12/21 00:33:53;;;;;;;11.85;7.40;;;3.80;65.20;;;-142.21;100.00;112049.66;5053753;28;20248;-79
2021/12/21 00:36:26;;;;;;;16.95;8.05;;;3.80;65.30;;;-142.21;100.00;112049.66;5053543;28;20296;-79
2021/12/21 00:38:56;;;;;;;15.05;7.97;;;3.60;65.20;;;-142.21;100.00;112049.66;5053963;28;20634;-80
2021/12/21 00:41:26;;;;;;;13.32;8.13;;;3.80;65.20;;;-142.21;100.00;112049.66;5053103;28;20205;-78
2021/12/21 00:43:54;;;;;;;11.75;7.53;;;3.70;65.30;;;-142.21;100.00;112049.66;5053920;28;20216;-80
2021/12/21 00:46:21;;;;;;;13.73;7.93;;;3.80;65.00;;;-142.21;100.00;112049.66;5053449;28;20237;-79
2021/12/21 00:48:51;;;;;;;10.18;7.65;;;3.80;64.60;;;-142.21;100.00;112049.66;5053445;28;20245;-78
2021/12/21 00:51:23;;;;;;;15.80;8.05;;;3.70;64.50;;;-142.21;100.00;112049.66;5053911;28;20594;-79
2021/12/21 00:53:53;;;;;;;13.02;7.90;;;3.70;65.50;;;-142.21;100.00;112049.66;5052462;28;20224;-79
2021/12/21 00:56:20;;;;;;;10.95;7.28;;;3.70;64.50;;;-142.21;100.00;112049.66;5053589;28;20213;-81
2021/12/21 00:58:49;;;;;;;12.07;7.43;;;3.70;64.70;;;-142.21;100.00;112049.66;5052838;28;20249;-78
2021/12/21 01:01:16;;;;;;;13.52;7.32;;;3.70;64.70;;;-142.21;100.00;112049.66;5053454;28;20284;-80
2021/12/21 01:03:48;;;;;;;12.00;7.72;;;3.60;64.30;;;-142.21;100.00;112049.66;5052968;28;20229;-80
2021/12/21 01:06:23;;;;;;;11.40;7.50;;;3.60;64.40;;;-142.21;100.00;112049.66;5053747;28;20605;-79
2021/12/21 01:09:05;;;;;;;12.80;7.28;;;3.60;64.30;;;-142.21;100.00;112049.66;5052591;28;20299;-80
2021/12/21 01:11:38;;;;;;;10.43;6.78;;;3.50;64.10;;;-142.21;100.00;112049.66;5053666;28;20245;-80
2021/12/21 01:14:30;;;;;;;10.60;6.88;;;3.50;64.30;;;-142.21;100.00;112049.66;5052589;28;20205;-80
2021/12/21 01:17:05;;;;;;;12.25;6.85;;;3.50;64.20;;;-142.21;100.00;112049.66;5052787;28;20190;-79
2021/12/21 01:19:37;;;;;;;14.00;7.47;;;3.40;64.20;;;-142.21;100.00;112049.66;5053141;28;20292;-80
2021/12/21 01:22:13;;;;;;;14.00;7.65;;;3.40;65.10;;;-142.21;100.00;112049.66;5052805;28;20209;-80
2021/12/21 01:24:56;;;;;;;11.70;7.03;;;3.40;64.80;;;-142.21;100.00;112049.66;5053045;28;20639;-80
2021/12/21 01:27:33;;;;;;;10.57;7.28;;;3.40;64.60;;;-142.21;100.00;112049.66;5052821;28;20194;-80
2021/12/21 01:30:10;;;;;;;15.38;7.60;;;3.40;64.60;;;-142.21;100.00;112049.66;5052332;28;20186;-79
2021/12/21 01:35:42;;;;;;;10.23;7.25;;;3.30;64.50;;;-142.21;100.00;112049.66;5151475;27;20548;-80
2021/12/21 01:38:21;;;;;;;10.45;7.13;;;3.30;64.70;;;-142.21;100.00;112049.66;5130152;27;20187;-81
2021/12/21 01:40:55;;;;;;;9.25;6.70;;;3.30;64.60;;;-142.21;100.00;112049.66;5130666;27;20203;-80
2021/12/21 01:43:30;;;;;;;10.30;7.10;;;3.30;64.70;;;-142.21;100.00;112049.66;5130123;28;20210;-80
2021/12/21 01:51:29;;;;;;;9.18;6.35;;;3.10;64.30;;;-142.21;100.00;112049.66;5130001;28;20649;-77
2021/12/21 01:53:57;;;;;;;10.30;6.97;;;3.20;64.70;;;-142.21;100.00;112049.66;5130207;28;20220;-78
2021/12/21 01:56:25;;;;;;;11.35;6.80;;;3.20;64.80;;;-142.21;100.00;112049.66;5130416;28;20222;-78
2021/12/21 01:58:53;;;;;;;13.88;7.28;;;3.20;64.90;;;-142.21;100.00;112049.66;5129998;28;20702;-78
2021/12/21 02:01:24;;;;;;;11.27;6.35;;;3.20;64.60;;;-142.21;100.00;112049.66;5130093;28;20209;-78
2021/12/21 02:03:51;;;;;;;11.00;6.93;;;3.30;64.80;;;-142.21;100.00;112049.66;5130372;28;20282;-78
2021/12/21 02:06:23;;;;;;;12.07;6.97;;;3.10;64.80;;;-142.21;100.00;112049.66;5130156;27;20203;-78
2021/12/21 02:08:52;;;;;;;9.60;6.20;;;3.10;65.20;;;-142.21;100.00;112049.66;5130141;27;20223;-78
2021/12/21 02:11:21;;;;;;;11.80;6.78;;;3.10;65.00;;;-142.21;100.00;112049.66;5130354;28;20374;-78
2021/12/21 02:13:50;;;;;;;10.77;6.85;;;3.10;65.10;;;-142.21;100.00;112049.66;5129134;28;20258;-78
2021/12/21 02:16:25;;;;;;;10.07;6.10;;;3.10;64.30;;;-142.21;100.00;112049.66;5129876;28;20368;-76
2021/12/21 02:19:00;;;;;;;11.82;6.80;;;3.20;64.00;;;-142.21;100.00;112049.66;5129369;28;20195;-79
2021/12/21 02:21:33;;;;;;;9.20;6.35;;;3.10;64.00;;;-142.21;100.00;112049.66;5129861;28;20183;-78
2021/12/21 02:24:06;;;;;;;12.43;7.97;;;3.00;63.80;;;-142.21;100.00;112049.66;5129155;28;20194;-79
2021/12/21 02:26:45;;;;;;;14.00;7.30;;;3.00;64.90;;;-142.21;100.00;112049.66;5129813;28;20525;-79
2021/12/21 02:29:16;;;;;;;11.38;6.70;;;2.90;65.00;;;-142.21;100.00;112049.66;5129687;28;20214;-78
2021/12/21 02:31:47;;;;;;;11.65;6.13;;;2.90;65.00;;;-142.21;100.00;112049.66;5130120;28;20196;-79
2021/12/21 02:34:18;;;;;;;11.05;6.50;;;3.00;65.70;;;-142.21;100.00;112049.66;5129225;28;20235;-78
2021/12/21 02:36:49;;;;;;;11.30;7.13;;;2.90;65.20;;;-142.21;100.00;112049.66;5129882;27;20237;-80
2021/12/21 02:39:18;;;;;;;12.32;6.75;;;2.90;64.80;;;-142.21;100.00;112049.66;5129845;28;20276;-77
2021/12/21 02:41:46;;;;;;;11.35;6.95;;;2.90;64.80;;;-142.21;100.00;112049.66;5136857;28;20290;-78
2021/12/21 02:44:14;;;;;;;12.07;6.50;;;2.90;65.30;;;-142.21;100.00;112049.66;5138028;28;20218;-79
2021/12/21 02:46:44;;;;;;;13.02;6.43;;;2.90;64.50;;;-142.21;100.00;112049.66;5116811;28;20282;-78
2021/12/21 02:49:13;;;;;;;12.60;6.88;;;2.80;64.80;;;-142.21;100.00;112049.66;5115367;28;20208;-79
2021/12/21 02:51:42;;;;;;;11.60;7.03;;;2.80;65.00;;;-142.21;100.00;112049.66;5115859;28;20318;-80
2021/12/21 02:54:13;;;;;;;9.45;6.70;;;2.70;64.40;;;-142.21;100.00;112049.66;5115360;28;20255;-80
2021/12/21 02:56:40;;;;;;;12.57;6.80;;;2.70;64.60;;;-142.21;100.00;112049.66;5115257;27;20243;-79
2021/12/21 02:59:08;;;;;;;16.83;7.47;;;2.60;64.50;;;-142.21;100.00;112049.66;5115161;28;20256;-81
2021/12/21 03:01:35;;;;;;;11.93;7.07;;;2.60;64.50;;;-142.21;100.00;112049.66;5115712;28;20253;-78
2021/12/21 03:04:03;;;;;;;12.20;6.25;;;2.70;64.40;;;-142.21;100.00;112049.66;5115385;28;20265;-80
2021/12/21 03:09:38;;;;;;;12.55;6.70;;;2.50;64.20;;;-142.21;100.00;112049.66;5103948;28;20239;-77
2021/12/21 03:12:14;;;;;;;12.57;6.88;;;2.60;64.10;;;-142.21;100.00;112049.66;5115224;28;20188;-78
2021/12/21 03:14:43;;;;;;;9.70;6.25;;;2.50;63.90;;;-142.21;100.00;112049.66;5115338;28;20214;-79
2021/12/21 03:17:11;;;;;;;10.27;6.95;;;2.50;63.50;;;-142.21;100.00;112049.66;5115206;28;20302;-80
2021/12/21 03:19:39;;;;;;;13.35;6.93;;;2.50;63.40;;;-142.21;100.00;112049.66;5114591;28;20200;-79
2021/12/21 03:22:09;;;;;;;11.73;6.60;;;2.60;63.40;;;-142.21;100.00;112049.66;5115346;28;20257;-79
2021/12/21 03:24:39;;;;;;;9.95;6.55;;;2.50;63.80;;;-142.21;100.00;112049.66;5114358;28;20287;-80
2021/12/21 03:27:07;;;;;;;12.07;7.20;;;2.50;64.20;;;-142.21;100.00;112049.66;5114490;28;20208;-79
2021/12/21 03:29:34;;;;;;;9.77;6.22;;;2.40;64.10;;;-142.21;100.00;112049.66;5114662;28;20287;-79
2021/12/21 03:32:01;;;;;;;9.98;6.05;;;2.50;63.80;;;-142.21;100.00;112049.66;5114894;28;20192;-78
2021/12/21 03:34:30;;;;;;;8.90;6.60;;;2.40;64.10;;;-142.21;100.00;112049.66;5114425;28;20250;-78
2021/12/21 03:36:57;;;;;;;10.88;6.22;;;2.40;64.20;;;-142.21;100.00;112049.66;5114839;28;20240;-79
2021/12/21 03:39:24;;;;;;;13.50;7.07;;;2.40;64.00;;;-142.21;100.00;112049.66;5114791;28;20290;-79
2021/12/21 03:41:58;;;;;;;12.35;6.70;;;2.40;63.70;;;-142.21;100.00;112049.66;5114025;28;20268;-79
2021/12/21 03:44:27;;;;;;;9.00;6.30;;;2.50;63.60;;;-142.21;100.00;112049.66;5114844;28;20583;-78
2021/12/21 03:46:56;;;;;;;13.98;7.28;;;2.40;63.50;;;-142.21;100.00;112049.66;5112900;28;20210;-79
2021/12/21 03:52:16;;;;;;;10.02;7.00;;;2.30;63.70;;;-142.21;100.00;112049.66;5114556;28;20659;-79
2021/12/21 03:54:46;;;;;;;10.23;6.47;;;2.30;63.70;;;-142.21;100.00;112049.66;5114125;28;20269;-80
2021/12/21 03:57:16;;;;;;;12.45;6.35;;;2.30;64.40;;;-142.21;100.00;112049.66;5113051;28;20659;-80
2021/12/21 03:59:44;;;;;;;8.55;6.22;;;2.20;64.40;;;-142.21;100.00;112049.66;5114588;28;20208;-79
2021/12/21 04:02:14;;;;;;;9.18;6.65;;;2.30;64.00;;;-142.21;100.00;112049.66;5113954;28;20555;-79
2021/12/21 04:04:43;;;;;;;9.45;6.50;;;2.20;63.60;;;-142.21;100.00;112049.66;5113827;28;20686;-81
2021/12/21 04:07:11;;;;;;;12.27;6.70;;;2.20;63.60;;;-142.21;100.00;112049.66;5113564;28;20231;-78
2021/12/21 04:09:39;;;;;;;11.45;6.03;;;2.20;63.80;;;-142.21;100.00;112049.66;5113794;28;20247;-80
2021/12/21 04:12:07;;;;;;;11.73;6.43;;;2.20;63.80;;;-142.21;100.00;112049.66;5113843;28;20243;-80
2021/12/21 04:14:36;;;;;;;10.35;7.10;;;2.20;64.70;;;-142.21;100.00;112049.66;5114123;28;20223;-78
2021/12/21 04:17:05;;;;;;;9.13;6.45;;;2.20;63.60;;;-142.21;100.00;112049.66;5113601;28;20215;-81
2021/12/21 04:19:32;;;;;;;15.50;6.95;;;2.20;63.60;;;-142.21;100.00;112049.66;5114306;28;20612;-78
2021/12/21 04:22:01;;;;;;;11.68;6.57;;;2.20;63.10;;;-142.21;100.00;112049.66;5114136;28;20242;-80
2021/12/21 04:24:29;;;;;;;11.20;7.10;;;2.20;62.90;;;-142.21;100.00;112049.66;5112988;28;20282;-79
2021/12/21 04:26:56;;;;;;;12.43;6.30;;;2.20;62.80;;;-142.21;100.00;112049.66;5113833;28;20203;-79
2021/12/21 04:29:23;;;;;;;7.97;6.15;;;2.20;62.80;;;-142.21;100.00;112049.66;5113449;28;20290;-78
2021/12/21 04:31:52;;;;;;;8.57;5.90;;;2.20;62.90;;;-142.21;100.00;112049.66;5113758;28;20253;-79
2021/12/21 04:34:19;;;;;;;11.10;5.97;;;2.20;62.90;;;-142.21;100.00;112049.66;5112611;28;20327;-78
2021/12/21 04:36:46;;;;;;;7.32;5.22;;;2.20;62.90;;;-142.21;100.00;112049.66;5113946;28;20290;-79
2021/12/21 04:39:26;;;;;;;10.85;6.18;;;2.20;62.90;;;-142.21;100.00;112049.66;5113262;28;20199;-79
2021/12/21 04:41:53;;;;;;;12.73;6.18;;;2.20;63.10;;;-142.21;100.00;112049.66;5114179;28;20252;-79
2021/12/21 04:44:20;;;;;;;8.55;6.28;;;2.20;63.00;;;-142.21;100.00;112049.66;5113872;28;20195;-79
2021/12/21 04:46:47;;;;;;;9.70;6.07;;;2.20;62.90;;;-142.21;100.00;112049.66;5112722;28;20207;-79
2021/12/21 04:49:16;;;;;;;7.57;5.57;;;2.20;63.40;;;-142.21;100.00;112049.66;5113460;28;20254;-79
2021/12/21 04:51:43;;;;;;;9.00;5.88;;;2.20;63.50;;;-142.21;100.00;112049.66;5112436;28;20290;-79
2021/12/21 04:54:10;;;;;;;9.90;6.65;;;2.20;63.80;;;-142.21;100.00;112049.66;5113609;28;20265;-79
2021/12/21 04:56:38;;;;;;;9.30;6.28;;;2.20;63.70;;;-142.21;100.00;112049.66;5113537;28;20546;-79
2021/12/21 04:59:05;;;;;;;11.82;6.43;;;2.20;63.70;;;-142.21;100.00;112049.66;5113449;28;20249;-78
2021/12/21 05:01:32;;;;;;;12.20;6.20;;;2.20;64.40;;;-142.21;100.00;112049.66;5113441;28;20214;-79
2021/12/21 05:04:00;;;;;;;12.15;6.32;;;2.20;64.00;;;-142.21;100.00;112049.66;5112741;28;20218;-78
2021/12/21 05:06:30;;;;;;;10.38;6.47;;;2.20;63.90;;;-142.21;100.00;112049.66;5113170;28;20227;-79
2021/12/21 05:09:09;;;;;;;11.02;6.28;;;2.20;63.80;;;-142.21;100.00;112049.66;5112311;28;20245;-79
2021/12/21 05:11:36;;;;;;;9.98;5.78;;;2.20;63.80;;;-142.21;100.00;112049.66;5113031;28;20191;-80
2021/12/21 05:14:08;;;;;;;11.27;6.70;;;2.20;63.60;;;-142.21;100.00;112049.66;5111487;28;20211;-78
2021/12/21 05:16:35;;;;;;;8.90;5.85;;;2.20;63.80;;;-142.21;100.00;112049.66;5112773;28;20180;-80
2021/12/21 05:19:02;;;;;;;8.43;5.47;;;2.20;63.80;;;-142.21;100.00;112049.66;5112380;28;20718;-79
2021/12/21 05:21:34;;;;;;;9.05;5.90;;;2.40;63.80;;;-142.21;100.00;112049.66;5112994;28;20246;-79
2021/12/21 05:24:02;;;;;;;9.93;5.90;;;2.20;63.90;;;-142.21;100.00;112049.66;5112649;28;20591;-81
2021/12/21 05:26:29;;;;;;;12.10;6.15;;;2.20;64.00;;;-142.21;100.00;112049.66;5113070;28;20202;-80
2021/12/21 05:28:57;;;;;;;11.13;5.82;;;2.20;63.80;;;-142.21;100.00;112049.66;5113202;28;20238;-80
2021/12/21 05:31:24;;;;;;;8.90;6.38;;;2.20;63.70;;;-142.21;100.00;112049.66;5112128;28;20283;-81
2021/12/21 05:33:52;;;;;;;10.57;5.97;;;2.20;64.00;;;-142.21;100.00;112049.66;5112404;28;20277;-80
2021/12/21 05:36:22;;;;;;;12.02;6.38;;;2.20;63.90;;;-142.21;100.00;112049.66;5111913;28;20227;-80
2021/12/21 05:38:59;;;;;;;9.55;6.25;;;2.20;64.10;;;-142.21;100.00;112049.66;5112829;28;20248;-80
2021/12/21 05:41:29;;;;;;;8.25;5.55;;;2.10;64.10;;;-142.21;100.00;112049.66;5112159;28;20237;-80
2021/12/21 05:43:58;;;;;;;12.38;6.05;;;2.10;64.50;;;-142.21;100.00;112049.66;5113026;28;20544;-79
2021/12/21 05:46:25;;;;;;;10.30;5.72;;;2.10;63.50;;;-142.21;100.00;112049.66;5111735;28;20223;-78
2021/12/21 05:48:55;;;;;;;10.80;6.55;;;2.10;64.10;;;-142.21;100.00;112049.66;5112922;28;20623;-79
2021/12/21 05:51:22;;;;;;;9.88;6.13;;;2.00;63.50;;;-142.21;100.00;112049.66;5112126;28;20561;-78
2021/12/21 05:53:51;;;;;;;8.20;5.22;;;1.90;63.60;;;-142.21;100.00;112049.66;5112853;28;20605;-79
2021/12/21 05:56:18;;;;;;;12.15;6.55;;;2.00;64.00;;;-142.21;100.00;112049.66;5113003;28;20311;-78
2021/12/21 05:58:45;;;;;;;8.40;6.93;;;2.00;64.10;;;-142.21;100.00;112049.66;5111877;28;20229;-80
2021/12/21 06:01:13;;;;;;;8.77;5.60;;;2.00;64.20;;;-142.21;100.00;112049.66;5112379;28;20290;-79
2021/12/21 06:03:40;;;;;;;9.50;6.72;;;2.00;64.10;;;-142.21;100.00;112049.66;5112125;28;20310;-79
2021/12/21 06:06:13;;;;;;;7.93;6.15;;;2.00;64.20;;;-142.21;100.00;112049.66;5118418;28;20455;-75
2021/12/21 06:08:40;;;;;;;8.27;6.22;;;2.00;63.90;;;-142.21;100.00;112049.66;5128307;28;20240;-77
2021/12/21 06:11:09;;;;;;;8.88;6.07;;;2.00;64.10;;;-142.21;100.00;112049.66;5117148;28;20208;-78
2021/12/21 06:14:00;;;;;;;9.32;6.45;;;2.00;63.70;;;-142.21;100.00;112049.66;5112182;28;20203;-79
2021/12/21 06:27:33;;;;;;;8.77;6.28;;;2.00;64.10;;;-142.21;100.00;112049.66;5116229;28;20199;-80
2021/12/21 06:30:01;;;;;;;10.98;6.07;;;2.00;64.10;;;-142.21;100.00;112049.66;5115789;28;20239;-79
2021/12/21 06:32:29;;;;;;;11.05;6.65;;;2.00;64.20;;;-142.21;100.00;112049.66;5116400;28;20208;-79
2021/12/21 06:34:57;;;;;;;10.55;6.93;;;2.00;63.80;;;-142.21;100.00;112049.66;5115135;28;20271;-78
2021/12/21 06:37:24;;;;;;;20.17;7.13;;;2.00;63.80;;;-142.21;100.00;112049.66;5116163;28;20211;-79
2021/12/21 06:39:52;;;;;;;10.80;6.40;;;2.10;63.80;;;-142.21;100.00;112049.66;5114392;28;20626;-79
2021/12/21 06:42:20;;;;;;;10.85;6.35;;;2.10;63.90;;;-142.21;100.00;112049.66;5115741;28;20203;-79
2021/12/21 06:44:54;;;;;;;13.70;6.05;;;2.10;63.90;;;-142.21;100.00;112049.66;5116121;28;20238;-78
2021/12/21 06:52:53;;;;;;;13.40;7.57;;;2.00;64.10;;;-142.21;100.00;112049.66;5115830;28;20222;-80
2021/12/21 06:55:20;;;;;;;8.30;6.10;;;2.00;63.90;;;-142.21;100.00;112049.66;5115284;28;20230;-80
2021/12/21 06:57:47;;;;;;;9.07;6.53;;;2.00;64.00;;;-142.21;100.00;112049.66;5115623;28;20212;-79
2021/12/21 07:00:19;;;;;;;10.27;7.63;;;2.10;64.00;;;-142.21;100.00;112049.66;5114702;28;20235;-80
2021/12/21 07:02:47;;;;;;;10.32;6.53;;;2.00;64.70;;;-142.21;100.00;112049.66;5115287;28;20192;-80
2021/12/21 07:05:17;;;;;;;10.20;6.30;;;2.00;64.40;;;-142.21;100.00;112049.66;5115682;28;20200;-79
2021/12/21 07:07:45;;;;;;;9.38;6.68;;;2.00;64.20;;;-142.21;100.00;112049.66;5115586;28;20287;-80
2021/12/21 07:10:21;;;;;;;10.40;6.50;;;2.00;63.50;;;-142.21;100.00;112049.66;5115245;28;20295;-80
2021/12/21 07:18:29;;;;;;;11.68;7.45;;;2.00;63.60;;;-142.21;100.00;112049.66;5115087;28;20244;-79
2021/12/21 07:21:01;;;;;;;9.02;6.32;;;2.00;64.10;;;-142.21;100.00;112049.66;5114975;28;20195;-80
2021/12/21 07:23:31;;;;;;;10.25;6.78;;;2.10;64.40;;;-142.21;100.00;112049.66;5114602;28;20699;-78
2021/12/21 07:25:58;;;;;;;11.98;6.85;;;2.10;64.50;;;-142.21;100.00;112049.66;5114995;28;20203;-80
2021/12/21 07:28:25;;;;;;;10.60;7.28;;;2.20;64.50;;;-142.21;100.00;112049.66;5114746;28;20208;-79
2021/12/21 07:30:56;;;;;;;13.05;7.07;;;2.20;64.50;;;-142.21;100.00;112049.66;5114933;28;20239;-79
2021/12/21 07:33:23;;;;;;;12.05;7.10;;;2.20;64.60;;;-142.21;100.00;112049.66;5114424;28;20200;-80
2021/12/21 07:35:51;;;;;;;11.20;7.28;;;2.20;64.80;;;-142.21;100.00;112049.66;5114443;28;20276;-78
2021/12/21 07:38:19;;;;;;;10.23;7.25;;;2.30;64.70;;;-142.21;100.00;112049.66;5114683;28;20234;-78
2021/12/21 07:40:47;;;;;;;13.90;8.15;;;2.30;64.90;;;-142.21;100.00;112049.66;5114362;28;20235;-78
2021/12/21 07:43:14;;;;;;;11.50;6.95;;;2.30;64.70;;;-142.21;100.00;112049.66;5114372;28;20286;-79
2021/12/21 07:45:41;;;;;;;14.38;7.50;;;2.30;64.00;;;-142.21;100.00;112049.66;5114805;28;20241;-79
2021/12/21 07:48:11;;;;;;;14.00;7.55;;;2.40;64.10;;;-142.21;100.00;112049.66;5113962;28;20206;-78
2021/12/21 07:50:39;;;;;;;13.55;7.65;;;2.40;63.70;;;-142.21;100.00;112049.66;5114580;28;20731;-79
2021/12/21 07:53:07;;;;;;;9.63;6.82;;;2.40;63.20;;;-142.21;100.00;112049.66;5113799;28;20668;-79
2021/12/21 07:55:35;;;;;;;9.02;6.93;;;2.40;62.60;;;-142.21;100.00;112049.66;5114597;28;20274;-79
2021/12/21 07:58:02;;;;;;;12.63;6.93;;;2.40;62.70;;;-142.21;100.00;112049.66;5112885;28;20626;-79
2021/12/21 08:00:30;;;;;;;10.13;7.22;;;2.40;63.80;;;-142.21;100.00;112049.66;5114193;28;20246;-79
2021/12/21 08:02:58;;;;;;;8.85;6.32;;;2.40;64.40;;;-142.21;100.00;112049.66;5114119;28;20204;-80
2021/12/21 08:05:31;;;;;;;12.48;7.13;;;2.40;64.10;;;-142.21;100.00;112049.66;5114061;28;20211;-78
2021/12/21 08:08:09;;;;;;;7.28;6.22;;;2.50;64.40;;;-142.21;100.00;112049.66;5114431;28;20199;-79
2021/12/21 08:10:44;;;;;;;13.60;6.57;;;2.40;63.60;;;-142.21;100.00;112049.66;5114324;28;20270;-79
2021/12/21 08:13:12;;;;;;;11.90;7.05;;;2.70;63.50;;;-142.21;100.00;112049.66;5113706;28;20662;-79
2021/12/21 08:15:39;;;;;;;11.20;6.07;;;3.20;63.00;;;-142.21;100.00;112049.66;5114051;28;20381;-79
2021/12/21 08:18:07;;;;;;;10.38;6.75;;;3.30;62.30;;;-142.21;100.00;112049.66;5113392;28;20232;-78
2021/12/21 08:20:36;;;;;;;9.95;6.90;;;3.60;61.50;;;-142.21;100.00;112049.66;5113906;28;20655;-79
2021/12/21 08:23:05;;;;;;;14.32;7.10;;;3.60;61.90;;;-142.21;100.00;112049.66;5113914;28;20239;-79
2021/12/21 08:25:33;;;;;;;10.75;7.32;;;3.70;61.40;;;-142.21;100.00;112049.66;5113213;28;20239;-78
2021/12/21 08:28:02;;;;;;;10.32;7.03;;;4.00;61.80;;;-142.21;100.00;112049.66;5113925;28;20591;-78
2021/12/21 08:30:30;;;;;;;11.25;7.30;;;4.00;62.20;;;-142.21;100.00;112049.66;5112962;28;20616;-79
2021/12/21 08:32:58;;;;;;;9.80;7.60;;;4.40;61.20;;;-142.21;100.00;112049.66;5113698;28;20239;-79
2021/12/21 08:35:25;;;;;;;11.15;7.38;;;4.40;60.80;;;-142.21;100.00;112049.66;5112775;28;20263;-79
2021/12/21 08:38:02;;;;;;;10.68;7.20;;;4.90;60.90;;;-142.21;100.00;112049.66;5113363;28;20249;-78
2021/12/21 08:40:37;;;;;;;11.25;7.32;;;5.60;59.80;;;-142.21;100.00;112049.66;5113031;28;20184;-78
2021/12/21 08:43:05;;;;;;;12.38;6.75;;;5.90;58.50;;;-142.21;100.00;112049.66;5113078;28;20607;-76
2021/12/21 08:45:34;;;;;;;12.13;7.93;;;5.80;58.70;;;-142.21;100.00;112049.66;5112629;28;20246;-77
2021/12/21 08:48:02;;;;;;;13.48;7.00;;;6.00;58.40;;;-142.21;100.00;112049.66;5113261;28;20296;-80
2021/12/21 08:50:30;;;;;;;10.20;6.60;;;5.90;58.70;;;-142.21;100.00;112049.66;5112910;28;20227;-75
2021/12/21 08:52:59;;;;;;;10.15;7.40;;;6.10;58.70;;;-142.21;100.00;112049.66;5113337;28;20206;-80
2021/12/21 08:55:28;;;;;;;11.43;7.32;;;6.10;58.40;;;-142.21;98.46;112049.66;5113331;28;20211;-78
2021/12/21 08:57:55;;;;;;;8.50;6.43;;;5.90;58.90;;;-142.21;95.52;112049.66;5112716;28;20227;-78
2021/12/21 09:00:23;;;;;;;10.60;6.32;;;5.80;59.30;;;-142.21;95.63;112049.66;5112852;28;20196;-79
2021/12/21 09:02:51;;;;;;;8.80;6.10;;;6.10;59.70;;;-142.21;97.67;112049.66;5112528;28;20226;-79
2021/12/21 09:05:24;;;;;;;9.80;6.18;;;6.60;58.90;;;-142.21;94.74;112049.66;5092674;28;20703;-79
2021/12/21 09:07:52;;;;;;;10.23;6.82;;;7.00;57.90;;;-142.21;94.39;112049.66;5092326;28;20181;-79
2021/12/21 09:10:24;;;;;;;10.05;6.93;;;6.80;57.90;;;-142.21;98.44;112049.66;5092757;28;20212;-81
2021/12/21 09:12:52;;;;;;;9.73;6.25;;;6.60;58.60;;;-142.21;98.23;112049.66;5092129;28;20184;-79
2021/12/21 09:15:21;;;;;;;7.73;6.07;;;6.80;58.80;;;-142.21;95.67;112049.66;5092782;28;20204;-81
2021/12/21 09:17:49;;;;;;;7.28;6.20;;;7.00;58.30;;;-142.21;96.03;112049.66;5092298;28;20438;-78
2021/12/21 09:20:21;;;;;;;11.63;6.67;;;7.00;58.00;;;-142.21;97.09;112049.66;5092536;28;20258;-79
2021/12/21 09:22:49;;;;;;;10.73;5.97;;;6.90;57.70;;;-142.21;95.37;112049.66;5092615;28;20421;-79
2021/12/21 09:25:18;;;;;;;8.03;6.37;;;6.80;58.30;;;-142.21;91.08;112049.66;5101475;28;20203;-79
2021/12/21 09:27:47;;;;;;;10.37;7.00;;;6.60;58.50;;;-142.21;88.30;112049.66;5112737;28;20465;-79
2021/12/21 09:30:18;;;;;;;9.15;5.95;;;6.70;58.90;;;-142.21;90.66;112049.66;5112934;28;21415;-79
2021/12/21 09:32:46;;;;;;;8.47;6.20;;;7.00;59.10;;;-142.21;83.85;112049.66;5122599;28;20220;-78
2021/12/21 09:35:14;;;;;;;10.40;5.70;;;7.40;58.00;;;-142.21;90.05;112049.66;5120694;28;20485;-79
2021/12/21 09:37:41;;;;;;;9.30;6.13;;;7.60;57.60;;;-142.21;85.07;112049.66;5112827;28;20493;-79
2021/12/21 09:40:14;;;;;;;8.17;6.10;;;7.80;57.70;;;-142.21;83.32;112049.66;5112364;28;20502;-79
2021/12/21 09:42:41;;;;;;;7.83;5.60;;;8.20;57.00;;;-142.21;86.66;112049.66;5112579;28;20440;-79
2021/12/21 09:45:11;;;;;;;8.40;5.57;;;8.70;55.80;;;-142.21;86.07;112049.66;5111924;28;20929;-78
2021/12/21 09:47:39;;;;;;;8.90;6.20;;;8.80;55.40;;;-142.21;73.75;112049.66;5112849;28;20465;-79
2021/12/21 09:50:12;;;;;;;6.63;5.13;;;9.20;54.70;;;-142.21;71.53;112049.66;5112517;28;20530;-79
2021/12/21 09:52:39;;;;;;;7.43;5.03;;;10.30;52.00;;;-142.21;73.46;112049.66;5112803;28;20839;-78
2021/12/21 09:55:11;;;;;;;7.20;5.43;;;11.30;51.00;;;-142.21;67.68;112049.66;5112656;28;20953;-78
2021/12/21 09:57:39;;;;;;;7.47;4.90;;;11.60;49.90;;;-142.21;52.97;112049.66;5116451;28;20809;-78
2021/12/21 10:00:13;;;;;;;7.77;5.37;;;11.40;49.10;;;-142.21;44.28;112049.66;5116668;28;20445;-76
2021/12/21 10:02:41;;;;;;;8.00;5.60;;;11.60;49.00;;;-142.21;43.96;112049.66;5116406;28;20430;-76
2021/12/21 10:05:12;;;;;;;7.63;5.20;;;12.40;49.10;;;-142.21;45.06;112049.66;5116852;28;20441;-77
2021/12/21 10:07:40;;;;;;;8.13;5.27;;;13.50;47.70;;;-142.21;39.48;112049.66;5116106;28;20418;-77
2021/12/21 10:10:12;;;;;;;8.13;4.83;;;14.50;45.70;;;-142.21;39.91;112049.66;5101314;28;20535;-74
2021/12/21 10:12:44;;;;;;;6.43;4.73;;;15.00;44.00;;;-142.21;34.83;112049.66;5095203;28;20505;-77
2021/12/21 10:15:20;;;;;;;5.43;4.37;;;15.30;42.60;;;-142.21;35.74;112049.66;5109262;28;20441;-78
2021/12/21 10:17:53;;;;;;;7.03;4.93;;;16.20;42.90;;;-142.21;31.79;112049.66;5106130;28;20474;-77
2021/12/21 10:20:37;;;;;;;7.53;4.73;;;16.70;38.60;;;-142.21;33.19;112049.66;5115934;28;20456;-77
2021/12/21 10:23:14;;;;;;;5.80;4.67;;;18.00;38.70;;;-142.21;30.18;112049.66;5113889;28;20442;-79
2021/12/21 10:25:49;;;;;;;6.67;4.47;;;19.10;36.60;;;-142.21;29.95;112049.66;5115289;28;20191;-78
2021/12/21 10:28:36;;;;;;;6.77;4.80;;;19.90;38.20;;;-142.21;29.48;112049.66;5116269;28;20256;-78
2021/12/21 10:31:10;;;;;;;8.20;4.53;;;20.50;33.20;;;-142.21;29.04;112049.66;5105864;28;20221;-79
2021/12/21 10:33:40;;;;;;;5.70;4.43;;;21.10;35.20;;;-142.21;29.58;112049.66;5110866;28;20245;-78
2021/12/21 10:36:10;;;;;;;5.27;4.23;;;21.70;34.80;;;-142.21;30.41;112049.66;5115363;28;20214;-77
2021/12/21 10:38:47;;;;;;;6.27;4.53;;;22.40;34.30;;;-142.21;28.25;112049.66;5115544;28;20207;-77
2021/12/21 10:41:18;;;;;;;6.37;5.00;;;22.30;31.80;;;-142.21;32.45;112049.66;5114957;28;20223;-77
2021/12/21 10:43:58;;;;;;;5.13;4.43;;;22.20;33.10;;;-142.21;29.14;112049.66;5112173;28;20199;-78